createdAt,value
2019-05-11T00:01:07.964Z,93.55
2019-05-11T00:03:38.584Z,94.03
2019-05-11T00:06:09.184Z,94.39
2019-05-11T00:08:39.479Z,94.39
2019-05-11T00:11:10.139Z,94.05
2019-05-11T00:13:42.218Z,94.06
2019-05-11T00:16:12.912Z,94.08
2019-05-11T00:18:43.953Z,94.06
2019-05-11T00:21:15.915Z,94.07
2019-05-11T00:23:47.019Z,94.06
2019-05-11T00:26:17.365Z,94.05
2019-05-11T00:28:48.040Z,94.08
2019-05-11T00:31:18.438Z,94.08
2019-05-11T00:33:49.566Z,94.11
2019-05-11T00:36:20.089Z,94.10
2019-05-11T00:38:50.475Z,94.11
2019-05-11T00:41:20.844Z,94.12
2019-05-11T00:43:51.095Z,94.10
2019-05-11T00:46:23.099Z,94.13
2019-05-11T00:48:53.488Z,94.13
2019-05-11T00:51:23.839Z,94.14
2019-05-11T00:53:54.566Z,94.14
2019-05-11T00:56:25.241Z,94.13
2019-05-11T00:58:55.651Z,94.12
2019-05-11T01:01:26.206Z,94.11
2019-05-11T01:03:56.587Z,94.11
2019-05-11T01:06:27.206Z,94.08
2019-05-11T01:08:57.533Z,94.07
2019-05-11T01:11:27.818Z,94.04
2019-05-11T01:13:58.137Z,94.05
2019-05-11T01:16:29.771Z,94.03
2019-05-11T01:19:00.067Z,94.01
2019-05-11T01:21:33.370Z,94.15
2019-05-11T01:24:03.962Z,94.15
2019-05-11T01:26:34.580Z,93.85
2019-05-11T01:29:05.007Z,93.75
2019-05-11T01:31:35.254Z,93.68
2019-05-11T01:34:05.854Z,93.58
2019-05-11T01:36:36.201Z,93.48
2019-05-11T01:39:07.891Z,93.32
2019-05-11T01:41:38.211Z,93.22
2019-05-11T01:44:08.752Z,93.05
2019-05-11T01:46:42.118Z,92.88
2019-05-11T01:49:15.175Z,92.64
2019-05-11T01:51:45.657Z,92.37
2019-05-11T01:54:16.340Z,92.09
2019-05-11T01:56:46.773Z,91.79
2019-05-11T01:59:18.380Z,91.52
2019-05-11T02:01:48.643Z,91.24
2019-05-11T02:04:20.170Z,90.99
2019-05-11T02:06:50.928Z,90.79
2019-05-11T02:09:21.519Z,90.63
2019-05-11T02:11:51.799Z,90.47
2019-05-11T02:14:23.854Z,90.31
2019-05-11T02:16:54.132Z,90.18
2019-05-11T02:19:26.031Z,90.11
2019-05-11T02:21:56.383Z,90.03
2019-05-11T02:24:26.661Z,89.96
2019-05-11T02:26:57.197Z,89.90
2019-05-11T02:29:27.540Z,89.84
2019-05-11T02:31:58.093Z,89.83
2019-05-11T02:34:28.680Z,89.82
2019-05-11T02:36:58.996Z,89.83
2019-05-11T02:39:29.275Z,89.84
2019-05-11T02:41:59.861Z,89.85
2019-05-11T02:44:32.885Z,89.90
2019-05-11T02:47:05.059Z,89.96
2019-05-11T02:49:38.605Z,90.00
2019-05-11T02:52:09.727Z,90.05
2019-05-11T02:54:41.478Z,90.04
2019-05-11T02:57:12.071Z,90.04
2019-05-11T02:59:42.354Z,90.05
2019-05-11T03:02:12.890Z,90.06
2019-05-11T03:04:43.207Z,90.05
2019-05-11T03:07:17.475Z,90.05
2019-05-11T03:09:47.974Z,90.04
2019-05-11T03:12:19.766Z,90.05
2019-05-11T03:14:52.342Z,90.05
2019-05-11T03:17:27.340Z,90.03
2019-05-11T03:19:57.809Z,89.97
2019-05-11T03:22:30.647Z,89.92
2019-05-11T03:25:01.108Z,89.94
2019-05-11T03:27:31.783Z,90.29
2019-05-11T03:30:02.527Z,90.29
2019-05-11T03:32:33.690Z,89.91
2019-05-11T03:35:04.055Z,89.89
2019-05-11T03:37:35.791Z,89.85
2019-05-11T03:40:06.258Z,89.84
2019-05-11T03:42:40.617Z,89.82
2019-05-11T03:45:11.360Z,89.81
2019-05-11T03:47:43.960Z,89.86
2019-05-11T03:50:14.259Z,89.88
2019-05-11T03:52:45.325Z,89.91
2019-05-11T03:55:15.815Z,89.91
2019-05-11T03:57:46.143Z,89.98
2019-05-11T04:00:16.405Z,89.68
2019-05-11T04:02:49.722Z,89.53
2019-05-11T04:05:20.017Z,89.55
2019-05-11T04:07:50.514Z,89.47
2019-05-11T04:10:25.086Z,89.43
2019-05-11T04:12:53.393Z,89.41
2019-05-11T04:15:23.677Z,89.18
2019-05-11T04:17:53.940Z,89.05
2019-05-11T04:20:24.813Z,88.98
2019-05-11T04:22:55.094Z,88.91
2019-05-11T04:25:25.937Z,88.84
2019-05-11T04:27:56.360Z,88.84
2019-05-11T04:30:26.749Z,88.78
2019-05-11T04:32:57.080Z,88.57
2019-05-11T04:35:29.113Z,88.51
2019-05-11T04:38:02.434Z,88.53
2019-05-11T04:40:32.981Z,88.59
2019-05-11T04:43:03.305Z,88.66
2019-05-11T04:45:34.816Z,88.69
2019-05-11T04:48:05.189Z,88.73
2019-05-11T04:50:36.840Z,88.78
2019-05-11T04:53:07.164Z,88.88
2019-05-11T04:55:37.796Z,89.07
2019-05-11T04:58:08.363Z,89.24
2019-05-11T05:00:38.734Z,89.28
2019-05-11T05:03:11.250Z,89.25
2019-05-11T05:05:41.605Z,89.26
2019-05-11T05:08:12.533Z,89.33
2019-05-11T05:10:45.854Z,89.39
2019-05-11T05:13:16.455Z,89.40
2019-05-11T05:15:46.735Z,89.29
2019-05-11T05:18:16.997Z,88.99
2019-05-11T05:20:48.232Z,88.72
2019-05-11T05:23:18.784Z,88.58
2019-05-11T05:25:50.693Z,88.39
2019-05-11T05:28:21.252Z,88.15
2019-05-11T05:30:51.536Z,88.08
2019-05-11T05:33:22.174Z,87.89
2019-05-11T05:35:52.445Z,87.69
2019-05-11T05:38:23.925Z,87.59
2019-05-11T05:40:54.206Z,87.50
2019-05-11T05:43:28.601Z,87.28
2019-05-11T05:45:59.026Z,87.17
2019-05-11T05:48:30.276Z,86.87
2019-05-11T05:51:00.813Z,86.68
2019-05-11T05:53:31.271Z,86.48
2019-05-11T05:56:02.728Z,86.32
2019-05-11T05:58:34.964Z,86.41
2019-05-11T06:01:10.078Z,86.41
2019-05-11T06:03:41.960Z,85.97
2019-05-11T06:06:16.697Z,85.16
2019-05-11T06:08:48.562Z,84.81
2019-05-11T06:11:21.027Z,83.95
2019-05-11T06:13:56.144Z,83.39
2019-05-11T06:16:26.638Z,82.05
2019-05-11T06:18:59.259Z,81.45
2019-05-11T06:21:29.882Z,80.88
2019-05-11T06:24:06.557Z,80.12
2019-05-11T06:26:38.063Z,80.12
2019-05-11T06:29:09.903Z,79.15
2019-05-11T06:31:40.173Z,79.14
2019-05-11T06:34:18.246Z,79.44
2019-05-11T06:36:48.646Z,78.37
2019-05-11T06:39:20.323Z,79.00
2019-05-11T06:41:50.595Z,79.11
2019-05-11T06:44:22.333Z,79.63
2019-05-11T06:46:52.891Z,79.12
2019-05-11T06:49:23.494Z,78.33
2019-05-11T06:51:53.830Z,77.68
2019-05-11T06:54:26.934Z,76.72
2019-05-11T06:56:57.272Z,75.78
2019-05-11T06:59:30.092Z,75.47
2019-05-11T07:02:00.800Z,74.76
2019-05-11T07:04:31.124Z,74.49
2019-05-11T07:07:01.739Z,74.25
2019-05-11T07:09:32.101Z,74.65
2019-05-11T07:12:02.491Z,74.20
2019-05-11T07:14:33.921Z,73.77
2019-05-11T07:17:04.378Z,73.18
2019-05-11T07:19:34.912Z,73.36
2019-05-11T07:22:05.548Z,72.97
2019-05-11T07:24:35.887Z,73.59
2019-05-11T07:27:06.463Z,72.74
2019-05-11T07:29:36.778Z,72.48
2019-05-11T07:32:19.937Z,73.16
2019-05-11T07:34:39.687Z,71.42
2019-05-11T07:37:10.009Z,71.08
2019-05-11T07:39:40.374Z,70.64
2019-05-11T07:42:15.146Z,69.62
2019-05-11T07:44:47.972Z,69.06
2019-05-11T07:47:18.820Z,69.59
2019-05-11T07:49:49.395Z,67.88
2019-05-11T07:52:20.903Z,67.63
2019-05-11T07:54:52.966Z,67.73
2019-05-11T07:57:25.671Z,68.22
2019-05-11T07:59:57.903Z,67.56
2019-05-11T08:02:32.304Z,67.32
2019-05-11T08:05:02.254Z,67.22
2019-05-11T08:07:33.647Z,67.22
2019-05-11T08:10:04.071Z,65.06
2019-05-11T08:12:34.572Z,63.79
2019-05-11T08:15:11.660Z,64.00
2019-05-11T08:17:38.185Z,63.41
2019-05-11T08:20:09.771Z,63.25
2019-05-11T08:22:41.557Z,63.67
2019-05-11T08:25:13.402Z,64.33
2019-05-11T08:27:44.629Z,65.13
2019-05-11T08:30:15.490Z,65.71
2019-05-11T08:32:49.541Z,64.16
2019-05-11T08:35:20.623Z,62.75
2019-05-11T08:37:51.547Z,61.68
2019-05-11T08:40:22.222Z,57.47
2019-05-11T08:42:52.898Z,54.32
2019-05-11T08:45:24.932Z,50.08
2019-05-11T08:47:57.929Z,46.81
2019-05-11T08:50:28.184Z,45.63
2019-05-11T08:52:59.081Z,46.17
2019-05-11T08:55:29.620Z,46.92
2019-05-11T08:58:00.215Z,47.65
2019-05-11T09:00:30.740Z,46.75
2019-05-11T09:03:01.370Z,44.50
2019-05-11T09:05:31.827Z,43.68
2019-05-11T09:08:02.426Z,42.26
2019-05-11T09:10:32.887Z,39.17
2019-05-11T09:13:03.511Z,38.93
2019-05-11T09:15:38.308Z,40.63
2019-05-11T09:18:09.176Z,43.77
2019-05-11T09:20:39.508Z,45.98
2019-05-11T09:23:10.086Z,45.73
2019-05-11T09:25:40.674Z,43.79
2019-05-11T09:28:11.630Z,39.65
2019-05-11T09:30:43.143Z,41.35
2019-05-11T09:33:14.057Z,43.14
2019-05-11T09:35:50.064Z,44.05
2019-05-11T09:38:18.571Z,44.63
2019-05-11T09:40:49.764Z,45.10
2019-05-11T09:43:20.361Z,44.79
2019-05-11T09:45:51.868Z,47.45
2019-05-11T09:48:24.824Z,44.62
2019-05-11T09:50:58.578Z,41.89
2019-05-11T09:53:28.539Z,41.65
2019-05-11T09:55:59.157Z,42.34
2019-05-11T09:58:30.690Z,41.37
2019-05-11T10:01:01.285Z,40.99
2019-05-11T10:03:31.612Z,43.16
2019-05-11T10:06:02.221Z,45.31
2019-05-11T10:08:32.506Z,45.85
2019-05-11T10:11:02.946Z,43.41
2019-05-11T10:13:33.726Z,37.45
2019-05-11T10:16:09.663Z,34.77
2019-05-11T10:18:38.536Z,37.23
2019-05-11T10:21:14.927Z,39.64
2019-05-11T10:23:45.628Z,40.36
2019-05-11T10:26:18.681Z,43.45
2019-05-11T10:28:49.691Z,41.65
2019-05-11T10:31:20.291Z,38.89
2019-05-11T10:33:52.387Z,36.19
2019-05-11T10:36:27.851Z,37.24
2019-05-11T10:38:58.803Z,39.93
2019-05-11T10:41:30.576Z,37.99
2019-05-11T10:44:04.365Z,32.86
2019-05-11T10:46:34.943Z,32.32
2019-05-11T10:49:07.832Z,32.32
2019-05-11T10:51:38.462Z,33.17
2019-05-11T10:54:09.127Z,32.60
2019-05-11T10:56:43.738Z,32.94
2019-05-11T10:59:15.636Z,32.85
2019-05-11T11:01:48.219Z,32.41
2019-05-11T11:04:18.614Z,30.65
2019-05-11T11:06:49.130Z,33.60
2019-05-11T11:09:19.745Z,35.57
2019-05-11T11:11:51.419Z,35.79
2019-05-11T11:14:22.029Z,38.71
2019-05-11T11:16:54.257Z,38.81
2019-05-11T11:19:24.880Z,38.19
2019-05-11T11:22:07.819Z,37.46
2019-05-11T11:24:29.784Z,38.67
2019-05-11T11:27:01.652Z,39.87
2019-05-11T11:29:32.206Z,39.67
2019-05-11T11:32:02.797Z,41.54
2019-05-11T11:34:33.672Z,42.54
2019-05-11T11:37:04.328Z,40.27
2019-05-11T11:39:35.448Z,38.16
2019-05-11T11:42:08.244Z,38.48
2019-05-11T11:44:39.554Z,39.27
2019-05-11T11:47:10.180Z,39.23
2019-05-11T11:49:41.770Z,37.06
2019-05-11T11:52:12.380Z,34.45
2019-05-11T11:54:44.671Z,33.17
2019-05-11T11:57:15.307Z,34.98
2019-05-11T11:59:48.083Z,39.33
2019-05-11T12:02:19.034Z,42.07
2019-05-11T12:04:49.926Z,42.82
2019-05-11T12:07:21.998Z,45.01
2019-05-11T12:09:52.643Z,46.33
2019-05-11T12:12:23.930Z,47.55
2019-05-11T12:14:54.575Z,47.49
2019-05-11T12:17:25.267Z,47.16
2019-05-11T12:19:58.414Z,45.47
2019-05-11T12:22:29.344Z,38.87
2019-05-11T12:25:00.533Z,38.87
2019-05-11T12:27:31.209Z,36.57
2019-05-11T12:30:01.593Z,37.13
2019-05-11T12:32:48.901Z,39.87
2019-05-11T12:35:22.110Z,41.91
2019-05-11T12:37:52.740Z,44.54
2019-05-11T12:40:23.346Z,44.26
2019-05-11T12:42:53.952Z,44.10
2019-05-11T12:45:26.037Z,44.89
2019-05-11T12:47:58.567Z,44.49
2019-05-11T12:50:29.111Z,45.22
2019-05-11T12:52:59.453Z,46.21
2019-05-11T12:55:30.169Z,46.71
2019-05-11T12:58:00.710Z,47.19
2019-05-11T13:00:31.600Z,45.99
2019-05-11T13:03:02.210Z,43.59
2019-05-11T13:05:34.590Z,44.69
2019-05-11T13:08:08.076Z,45.04
2019-05-11T13:10:39.118Z,45.21
2019-05-11T13:13:09.771Z,44.84
2019-05-11T13:15:40.574Z,44.09
2019-05-11T13:18:11.171Z,42.82
2019-05-11T13:20:41.894Z,41.36
2019-05-11T13:23:18.535Z,40.40
2019-05-11T13:25:49.300Z,40.87
2019-05-11T13:28:19.630Z,42.00
2019-05-11T13:30:50.263Z,42.94
2019-05-11T13:33:22.348Z,42.36
2019-05-11T13:35:52.984Z,42.32
2019-05-11T13:38:23.590Z,42.95
2019-05-11T13:40:54.187Z,45.17
2019-05-11T13:43:24.799Z,45.53
2019-05-11T13:45:55.379Z,45.46
2019-05-11T13:48:28.006Z,45.21
2019-05-11T13:51:01.202Z,45.53
2019-05-11T13:53:31.988Z,45.62
2019-05-11T13:56:02.581Z,45.68
2019-05-11T13:58:34.014Z,45.50
2019-05-11T14:01:05.027Z,45.73
2019-05-11T14:03:37.694Z,44.56
2019-05-11T14:06:09.848Z,44.27
2019-05-11T14:08:40.490Z,44.33
2019-05-11T14:11:12.092Z,42.56
2019-05-11T14:13:42.720Z,42.69
2019-05-11T14:16:13.329Z,42.48
2019-05-11T14:18:45.292Z,43.08
2019-05-11T14:21:18.646Z,43.53
2019-05-11T14:23:49.396Z,42.22
2019-05-11T14:26:22.130Z,40.39
2019-05-11T14:28:52.717Z,38.13
2019-05-11T14:31:27.464Z,38.31
2019-05-11T14:33:58.120Z,39.96
2019-05-11T14:36:29.332Z,45.38
2019-05-11T14:38:59.652Z,48.93
2019-05-11T14:41:30.111Z,55.03
2019-05-11T14:44:00.478Z,57.17
2019-05-11T14:46:30.905Z,58.96
2019-05-11T14:54:14.894Z,52.91
2019-05-11T14:56:47.955Z,52.29
2019-05-11T14:59:19.048Z,50.82
2019-05-11T15:01:49.656Z,46.33
2019-05-11T15:04:20.215Z,42.17
2019-05-11T15:06:51.117Z,42.18
2019-05-11T15:09:21.794Z,41.00
2019-05-11T15:11:53.626Z,40.23
2019-05-11T15:14:24.229Z,41.15
2019-05-11T15:16:54.870Z,41.67
2019-05-11T15:19:27.881Z,40.39
2019-05-11T15:21:58.918Z,39.90
2019-05-11T15:24:29.624Z,39.18
2019-05-11T15:26:59.938Z,39.69
2019-05-11T15:29:30.280Z,39.99
2019-05-11T15:32:00.671Z,39.33
2019-05-11T15:34:34.485Z,39.82
2019-05-11T15:37:05.305Z,38.45
2019-05-11T15:39:37.891Z,38.11
2019-05-11T15:42:14.868Z,39.21
2019-05-11T15:44:44.843Z,39.99
2019-05-11T15:47:16.777Z,39.57
2019-05-11T15:49:48.487Z,40.39
2019-05-11T15:52:19.037Z,40.23
2019-05-11T15:54:49.996Z,40.66
2019-05-11T15:57:20.602Z,40.56
2019-05-11T15:59:50.893Z,40.25
2019-05-11T16:02:21.828Z,40.31
2019-05-11T16:04:52.433Z,39.76
2019-05-11T16:07:23.071Z,40.26
2019-05-11T16:09:53.990Z,39.98
2019-05-11T16:12:28.626Z,40.54
2019-05-11T16:15:00.281Z,40.54
2019-05-11T16:17:31.148Z,40.41
2019-05-11T16:20:05.113Z,39.33
2019-05-11T16:22:38.294Z,38.96
2019-05-11T16:25:08.783Z,38.51
2019-05-11T16:27:39.739Z,38.61
2019-05-11T16:30:12.374Z,38.11
2019-05-11T16:32:44.031Z,37.92
2019-05-11T16:35:14.665Z,37.74
2019-05-11T16:37:45.581Z,36.48
2019-05-11T16:40:20.113Z,36.84
2019-05-11T16:42:49.293Z,36.51
2019-05-11T16:45:23.470Z,36.62
2019-05-11T16:47:52.071Z,36.97
2019-05-11T16:50:22.701Z,36.64
2019-05-11T16:52:52.983Z,37.22
2019-05-11T16:55:23.585Z,37.27
2019-05-11T16:57:58.654Z,37.57
2019-05-11T17:00:28.629Z,37.22
2019-05-11T17:03:00.728Z,36.95
2019-05-11T17:05:33.904Z,37.07
2019-05-11T17:08:04.637Z,36.28
2019-05-11T17:10:34.953Z,36.28
2019-05-11T17:13:05.868Z,36.92
2019-05-11T17:15:38.986Z,37.06
2019-05-11T17:18:09.349Z,37.24
2019-05-11T17:20:39.699Z,37.09
2019-05-11T17:23:10.154Z,36.64
2019-05-11T17:25:40.438Z,36.31
2019-05-11T17:28:10.779Z,36.47
2019-05-11T17:30:41.065Z,36.69
2019-05-11T17:33:11.688Z,36.44
2019-05-11T17:35:42.016Z,37.06
2019-05-11T17:38:12.401Z,37.37
2019-05-11T17:40:42.753Z,37.17
2019-05-11T17:43:14.036Z,37.84
2019-05-11T17:45:45.016Z,38.24
2019-05-11T17:48:17.750Z,38.70
2019-05-11T17:50:50.106Z,39.19
2019-05-11T17:53:20.695Z,39.55
2019-05-11T17:55:51.278Z,39.66
2019-05-11T17:58:21.802Z,39.66
2019-05-11T18:00:53.428Z,39.40
2019-05-11T18:03:24.180Z,39.72
2019-05-11T18:05:54.606Z,40.17
2019-05-11T18:08:28.561Z,40.35
2019-05-11T18:10:58.656Z,40.45
2019-05-11T18:13:30.070Z,40.78
2019-05-11T18:16:00.625Z,41.19
2019-05-11T18:18:30.993Z,41.27
2019-05-11T18:21:01.919Z,41.64
2019-05-11T18:23:35.228Z,41.96
2019-05-11T18:26:05.634Z,42.10
2019-05-11T18:28:37.849Z,42.08
2019-05-11T18:31:08.560Z,41.85
2019-05-11T18:33:39.647Z,41.78
2019-05-11T18:36:09.965Z,41.87
2019-05-11T18:38:40.577Z,41.90
2019-05-11T18:41:10.965Z,42.10
2019-05-11T18:43:41.276Z,42.34
2019-05-11T18:46:11.586Z,42.87
2019-05-11T18:48:41.955Z,43.20
2019-05-11T18:51:12.515Z,43.50
2019-05-11T18:53:43.277Z,43.58
2019-05-11T18:56:13.865Z,44.08
2019-05-11T18:58:44.337Z,44.04
2019-05-11T19:01:14.959Z,43.80
2019-05-11T19:03:47.695Z,43.80
2019-05-11T19:06:18.437Z,44.02
2019-05-11T19:08:50.027Z,44.63
2019-05-11T19:11:21.151Z,44.80
2019-05-11T19:13:52.025Z,45.16
2019-05-11T19:16:22.429Z,45.55
2019-05-11T19:18:52.954Z,46.25
2019-05-11T19:21:23.241Z,46.67
2019-05-11T19:23:53.571Z,46.76
2019-05-11T19:26:23.962Z,47.19
2019-05-11T19:28:54.245Z,47.53
2019-05-11T19:31:24.638Z,47.79
2019-05-11T19:33:54.920Z,47.56
2019-05-11T19:36:27.615Z,47.71
2019-05-11T19:38:58.407Z,47.95
2019-05-11T19:41:29.779Z,48.38
2019-05-11T19:44:00.066Z,48.61
2019-05-11T19:46:30.681Z,48.87
2019-05-11T19:49:01.188Z,48.60
2019-05-11T19:51:31.493Z,48.63
2019-05-11T19:54:01.802Z,48.74
2019-05-11T19:56:32.074Z,48.69
2019-05-11T19:59:02.742Z,48.89
2019-05-11T20:01:33.056Z,49.05
2019-05-11T20:04:05.124Z,49.27
2019-05-11T20:06:35.414Z,49.69
2019-05-11T20:09:08.754Z,49.91
2019-05-11T20:11:39.217Z,50.18
2019-05-11T20:14:12.888Z,50.17
2019-05-11T20:16:43.334Z,50.31
2019-05-11T20:19:14.172Z,50.25
2019-05-11T20:21:44.792Z,50.15
2019-05-11T20:24:15.053Z,50.21
2019-05-11T20:26:45.386Z,50.40
2019-05-11T20:29:16.024Z,50.58
2019-05-11T20:31:46.395Z,50.72
2019-05-11T20:34:18.007Z,51.22
2019-05-11T20:36:49.714Z,51.81
2019-05-11T20:39:20.031Z,51.99
2019-05-11T20:41:50.628Z,51.62
2019-05-11T20:44:23.469Z,51.69
2019-05-11T20:46:53.773Z,52.13
2019-05-11T20:49:24.186Z,52.73
2019-05-11T20:51:54.460Z,52.42
2019-05-11T20:54:28.180Z,52.58
2019-05-11T20:57:00.049Z,52.62
2019-05-11T20:59:30.334Z,52.62
2019-05-11T21:02:00.936Z,53.02
2019-05-11T21:04:31.314Z,53.36
2019-05-11T21:07:01.696Z,53.43
2019-05-11T21:09:31.979Z,53.46
2019-05-11T21:12:03.233Z,53.92
2019-05-11T21:14:33.725Z,54.01
2019-05-11T21:17:05.037Z,54.81
2019-05-11T21:19:35.336Z,54.81
2019-05-11T21:22:05.643Z,54.87
2019-05-11T21:24:35.907Z,54.81
2019-05-11T21:27:06.180Z,55.25
2019-05-11T21:29:38.683Z,55.71
2019-05-11T21:32:08.834Z,55.80
2019-05-11T21:34:39.813Z,56.10
2019-05-11T21:37:10.096Z,56.25
2019-05-11T21:39:41.527Z,56.25
2019-05-11T21:42:11.952Z,56.40
2019-05-11T21:44:42.322Z,56.71
2019-05-11T21:47:12.799Z,56.79
2019-05-11T21:49:43.074Z,57.11
2019-05-11T21:52:13.411Z,57.98
2019-05-11T21:54:44.008Z,57.98
2019-05-11T21:57:14.283Z,57.72
2019-05-11T21:59:45.044Z,58.16
2019-05-11T22:02:15.497Z,58.25
2019-05-11T22:04:47.997Z,58.43
2019-05-11T22:07:18.592Z,58.68
2019-05-11T22:09:50.264Z,59.36
2019-05-11T22:12:20.692Z,59.51
2019-05-11T22:14:50.961Z,59.29
2019-05-11T22:17:21.388Z,59.61
2019-05-11T22:19:52.653Z,60.23
2019-05-11T22:22:25.401Z,60.23
2019-05-11T22:24:55.224Z,60.61
2019-05-11T22:27:27.801Z,60.55
2019-05-11T22:29:58.950Z,60.56
2019-05-11T22:32:29.357Z,60.92
2019-05-11T22:35:00.031Z,61.23
2019-05-11T22:37:31.536Z,61.23
2019-05-11T22:40:02.097Z,61.58
2019-05-11T22:42:32.640Z,61.60
2019-05-11T22:45:04.037Z,62.10
2019-05-11T22:47:34.306Z,61.76
2019-05-11T22:50:07.735Z,61.73
2019-05-11T22:52:40.404Z,62.00
2019-05-11T22:55:12.024Z,62.33
2019-05-11T22:57:42.919Z,62.67
2019-05-11T23:00:13.564Z,62.74
2019-05-11T23:02:44.006Z,62.90
2019-05-11T23:05:14.287Z,63.17
2019-05-11T23:07:44.623Z,63.16
2019-05-11T23:10:14.907Z,63.45
2019-05-11T23:12:48.365Z,63.72
2019-05-11T23:15:19.174Z,64.31
2019-05-11T23:17:49.523Z,64.48
2019-05-11T23:20:20.070Z,64.64
2019-05-11T23:22:57.887Z,65.05
2019-05-11T23:25:22.479Z,65.28
2019-05-11T23:27:53.047Z,65.07
2019-05-11T23:30:23.643Z,65.17
2019-05-11T23:32:54.279Z,65.59
2019-05-11T23:35:24.737Z,65.59
2019-05-11T23:37:58.099Z,65.76
2019-05-11T23:40:31.419Z,65.89
2019-05-11T23:43:01.697Z,66.51
2019-05-11T23:45:32.021Z,66.63
2019-05-11T23:48:02.332Z,66.71
2019-05-11T23:50:32.872Z,66.89
2019-05-11T23:53:06.847Z,66.89
2019-05-11T23:55:38.006Z,66.97
2019-05-11T23:58:08.703Z,66.96
